createdAt,value
2017-05-13T00:00:37.437Z,74.62
2017-05-13T00:01:18.048Z,74.43
2017-05-13T00:01:58.626Z,74.72
2017-05-13T00:02:39.212Z,74.43
2017-05-13T00:03:19.817Z,74.33
2017-05-13T00:04:00.415Z,74.33
2017-05-13T00:04:41.029Z,74.15
2017-05-13T00:05:21.623Z,74.33
2017-05-13T00:06:02.198Z,74.15
2017-05-13T00:06:42.808Z,74.72
2017-05-13T00:07:23.410Z,74.72
2017-05-13T00:08:04.041Z,74.72
2017-05-13T00:08:44.653Z,74.82
2017-05-13T00:09:25.282Z,74.91
2017-05-13T00:10:05.901Z,75.1
2017-05-13T00:10:46.536Z,75.01
2017-05-13T00:11:27.137Z,74.91
2017-05-13T00:12:07.761Z,74.91
2017-05-13T00:12:48.374Z,75.1
2017-05-13T00:13:28.997Z,74.82
2017-05-13T00:14:09.597Z,75.01
2017-05-13T00:14:50.230Z,74.91
2017-05-13T00:15:30.758Z,74.91
2017-05-13T00:16:11.353Z,74.91
2017-05-13T00:16:51.947Z,75.01
2017-05-13T00:17:32.561Z,75.29
2017-05-13T00:18:13.107Z,75.2
2017-05-13T00:18:53.671Z,75.2
2017-05-13T00:19:34.252Z,75.01
2017-05-13T00:20:14.863Z,75.39
2017-05-13T00:20:55.440Z,75.2
2017-05-13T00:21:36.025Z,75.45
2017-05-13T00:22:16.620Z,74.91
2017-05-13T00:22:57.200Z,75.01
2017-05-13T00:23:37.772Z,75.01
2017-05-13T00:24:18.361Z,74.87
2017-05-13T00:24:58.963Z,75.01
2017-05-13T00:25:39.577Z,74.91
2017-05-13T00:26:20.172Z,75.01
2017-05-13T00:27:00.756Z,74.82
2017-05-13T00:27:41.338Z,74.91
2017-05-13T00:28:21.923Z,74.91
2017-05-13T00:29:02.623Z,75.1
2017-05-13T00:29:43.189Z,74.72
2017-05-13T00:30:23.755Z,74.72
2017-05-13T00:31:04.351Z,74.91
2017-05-13T00:31:44.988Z,75.01
2017-05-13T00:32:25.607Z,74.91
2017-05-13T00:33:06.177Z,75.01
2017-05-13T00:33:46.754Z,74.91
2017-05-13T00:34:27.328Z,74.91
2017-05-13T00:35:07.900Z,74.68
2017-05-13T00:35:48.488Z,74.97
2017-05-13T00:36:29.130Z,74.91
2017-05-13T00:37:09.724Z,74.82
2017-05-13T00:37:50.297Z,74.82
2017-05-13T00:38:30.886Z,74.72
2017-05-13T00:39:11.485Z,74.68
2017-05-13T00:39:52.052Z,74.68
2017-05-13T00:40:32.622Z,74.91
2017-05-13T00:41:13.210Z,74.77
2017-05-13T00:41:53.788Z,75.07
2017-05-13T00:42:34.433Z,74.97
2017-05-13T00:43:15.014Z,74.97
2017-05-13T00:43:55.607Z,74.87
2017-05-13T00:44:36.185Z,74.87
2017-05-13T00:45:16.802Z,75.07
2017-05-13T00:45:57.388Z,75.26
2017-05-13T00:46:37.996Z,75.16
2017-05-13T00:47:18.591Z,75.16
2017-05-13T00:47:59.208Z,74.87
2017-05-13T00:48:39.780Z,74.97
2017-05-13T00:49:20.370Z,75.35
2017-05-13T00:50:01.005Z,74.97
2017-05-13T00:50:41.633Z,74.97
2017-05-13T00:51:22.220Z,74.97
2017-05-13T00:52:02.849Z,75.07
2017-05-13T00:52:43.428Z,74.4
2017-05-13T00:53:24.002Z,74.2
2017-05-13T00:54:04.682Z,74.2
2017-05-13T00:54:45.242Z,74.3
2017-05-13T00:55:25.800Z,74.3
2017-05-13T00:56:06.386Z,73.91
2017-05-13T00:56:46.963Z,74.3
2017-05-13T00:57:27.535Z,74.4
2017-05-13T00:58:08.143Z,74.68
2017-05-13T00:58:48.728Z,74.4
2017-05-13T00:59:29.337Z,74.4
2017-05-13T01:00:09.923Z,73.82
2017-05-13T01:00:50.500Z,73.91
2017-05-13T01:01:31.097Z,74.11
2017-05-13T01:02:11.676Z,74.3
2017-05-13T01:02:52.259Z,73.82
2017-05-13T01:03:32.838Z,74.4
2017-05-13T01:04:13.408Z,74.4
2017-05-13T01:04:53.997Z,74.3
2017-05-13T01:05:34.581Z,74.2
2017-05-13T01:06:15.194Z,74.01
2017-05-13T01:06:55.768Z,74.3
2017-05-13T01:07:36.375Z,74.4
2017-05-13T01:08:16.978Z,74.58
2017-05-13T01:08:57.554Z,74.77
2017-05-13T01:09:38.178Z,74.68
2017-05-13T01:10:18.806Z,74.4
2017-05-13T01:10:59.393Z,74.2
2017-05-13T01:11:39.992Z,74.68
2017-05-13T01:12:20.576Z,74.77
2017-05-13T01:13:01.145Z,74.3
2017-05-13T01:13:41.741Z,74.2
2017-05-13T01:14:22.372Z,74.4
2017-05-13T01:15:02.926Z,74.2
2017-05-13T01:15:43.497Z,74.49
2017-05-13T01:16:24.114Z,74.68
2017-05-13T01:17:04.691Z,74.58
2017-05-13T01:17:45.295Z,74.58
2017-05-13T01:18:25.889Z,74.4
2017-05-13T01:19:06.467Z,74.4
2017-05-13T01:19:47.067Z,74.49
2017-05-13T01:20:27.662Z,74.87
2017-05-13T01:21:08.248Z,74.4
2017-05-13T01:21:48.856Z,74.58
2017-05-13T01:22:29.446Z,74.4
2017-05-13T01:23:10.024Z,74.3
2017-05-13T01:23:50.619Z,74.4
2017-05-13T01:24:31.218Z,74.4
2017-05-13T01:25:11.797Z,74.11
2017-05-13T01:25:52.394Z,74.4
2017-05-13T01:26:32.986Z,74.2
2017-05-13T01:27:13.589Z,74.2
2017-05-13T01:27:54.172Z,74.3
2017-05-13T01:28:34.774Z,74.3
2017-05-13T01:29:15.349Z,74.49
2017-05-13T01:29:55.957Z,74.4
2017-05-13T01:30:36.535Z,74.77
2017-05-13T01:31:17.110Z,74.77
2017-05-13T01:31:57.756Z,74.49
2017-05-13T01:32:38.334Z,74.49
2017-05-13T01:33:18.973Z,74.4
2017-05-13T01:33:59.569Z,74.11
2017-05-13T01:34:40.148Z,74.11
2017-05-13T01:35:20.768Z,73.54
2017-05-13T01:36:01.374Z,73.91
2017-05-13T01:36:41.980Z,73.72
2017-05-13T01:37:22.558Z,73.24
2017-05-13T01:38:03.127Z,73.54
2017-05-13T01:38:43.726Z,73.24
2017-05-13T01:39:24.311Z,73.24
2017-05-13T01:40:04.945Z,73.15
2017-05-13T01:40:45.522Z,73.72
2017-05-13T01:41:26.092Z,73.44
2017-05-13T01:42:06.662Z,73.54
2017-05-13T01:42:47.238Z,73.34
2017-05-13T01:43:27.850Z,73.44
2017-05-13T01:44:08.452Z,73.44
2017-05-13T01:44:49.038Z,73.54
2017-05-13T01:45:29.616Z,73.72
2017-05-13T01:46:10.247Z,73.91
2017-05-13T01:46:51.002Z,73.63
2017-05-13T01:47:31.588Z,73.54
2017-05-13T01:48:12.167Z,73.24
2017-05-13T01:48:52.760Z,73.34
2017-05-13T01:49:33.407Z,73.24
2017-05-13T01:50:14.002Z,73.34
2017-05-13T01:50:54.585Z,73.34
2017-05-13T01:51:35.170Z,73.3
2017-05-13T01:52:15.755Z,73.24
2017-05-13T01:52:56.329Z,73.5
2017-05-13T01:53:36.926Z,73.82
2017-05-13T01:54:17.532Z,73.91
2017-05-13T01:54:58.130Z,73.88
2017-05-13T01:55:38.713Z,73.54
2017-05-13T01:56:19.308Z,73.3
2017-05-13T01:56:59.922Z,73.34
2017-05-13T01:57:40.510Z,73.63
2017-05-13T01:58:21.105Z,73.82
2017-05-13T01:59:01.677Z,73.91
2017-05-13T01:59:42.277Z,73.82
2017-05-13T02:00:22.850Z,73.54
2017-05-13T02:01:03.420Z,73.54
2017-05-13T02:01:44.013Z,73.4
2017-05-13T02:02:24.602Z,72.96
2017-05-13T02:03:05.219Z,72.77
2017-05-13T02:03:45.800Z,73.05
2017-05-13T02:04:26.389Z,72.96
2017-05-13T02:05:06.956Z,72.96
2017-05-13T02:05:47.535Z,73.44
2017-05-13T02:06:28.117Z,73.34
2017-05-13T02:07:08.712Z,73.34
2017-05-13T02:07:49.285Z,72.96
2017-05-13T02:08:29.873Z,73.34
2017-05-13T02:09:10.471Z,73.15
2017-05-13T02:09:51.074Z,73.34
2017-05-13T02:10:31.670Z,73.24
2017-05-13T02:11:12.260Z,73.34
2017-05-13T02:11:52.841Z,73.24
2017-05-13T02:12:33.447Z,73.34
2017-05-13T02:13:14.134Z,73.44
2017-05-13T02:13:54.727Z,73.34
2017-05-13T02:14:35.322Z,73.82
2017-05-13T02:15:15.911Z,73.54
2017-05-13T02:15:56.515Z,73.72
2017-05-13T02:16:37.127Z,73.72
2017-05-13T02:17:17.753Z,73.91
2017-05-13T02:17:58.339Z,74.3
2017-05-13T02:18:38.926Z,73.97
2017-05-13T02:19:19.534Z,74.2
2017-05-13T02:20:00.148Z,74.3
2017-05-13T02:20:40.754Z,74.4
2017-05-13T02:21:21.357Z,74.68
2017-05-13T02:22:01.956Z,74.4
2017-05-13T02:22:42.537Z,74.01
2017-05-13T02:23:23.128Z,74.11
2017-05-13T02:24:03.718Z,74.87
2017-05-13T02:24:44.308Z,74.68
2017-05-13T02:25:24.887Z,74.58
2017-05-13T02:26:05.490Z,75.07
2017-05-13T02:26:46.062Z,74.87
2017-05-13T02:27:26.657Z,74.58
2017-05-13T02:28:07.253Z,74.65
2017-05-13T02:28:47.848Z,74.84
2017-05-13T02:29:28.459Z,74.65
2017-05-13T02:30:09.058Z,74.84
2017-05-13T02:30:49.673Z,75.31
2017-05-13T02:31:30.273Z,75.02
2017-05-13T02:32:10.902Z,75.31
2017-05-13T02:32:51.481Z,75.41
2017-05-13T02:33:32.087Z,75.12
2017-05-13T02:34:12.651Z,75.41
2017-05-13T02:34:53.219Z,75.31
2017-05-13T02:35:33.806Z,75.26
2017-05-13T02:36:14.378Z,74.93
2017-05-13T02:36:54.990Z,74.4
2017-05-13T02:37:35.590Z,74.3
2017-05-13T02:38:16.193Z,74.77
2017-05-13T02:38:56.785Z,74.2
2017-05-13T02:39:37.401Z,74.26
2017-05-13T02:40:18.092Z,74.11
2017-05-13T02:40:58.713Z,74.2
2017-05-13T02:41:39.556Z,74.3
2017-05-13T02:42:20.202Z,74.2
2017-05-13T02:43:00.832Z,74.16
2017-05-13T02:43:41.431Z,74.3
2017-05-13T02:44:22.117Z,74.2
2017-05-13T02:45:02.699Z,74.36
2017-05-13T02:45:43.680Z,73.69
2017-05-13T02:46:24.277Z,73.97
2017-05-13T02:47:04.918Z,73.91
2017-05-13T02:47:45.509Z,73.72
2017-05-13T02:48:26.313Z,73.69
2017-05-13T02:49:07.041Z,73.5
2017-05-13T02:49:47.700Z,73.44
2017-05-13T02:50:28.391Z,72.96
2017-05-13T02:51:09.017Z,72.73
2017-05-13T02:51:49.587Z,72.86
2017-05-13T02:52:30.180Z,72.44
2017-05-13T02:53:10.772Z,73.21
2017-05-13T02:53:51.358Z,73.11
2017-05-13T02:54:31.961Z,72.58
2017-05-13T02:55:12.581Z,72.73
2017-05-13T02:55:53.207Z,72.67
2017-05-13T02:56:33.787Z,72.73
2017-05-13T02:57:14.382Z,72.73
2017-05-13T02:57:55.033Z,73.02
2017-05-13T02:58:35.641Z,72.83
2017-05-13T02:59:16.239Z,72.34
2017-05-13T02:59:56.821Z,72.73
2017-05-13T03:00:37.503Z,72.63
2017-05-13T03:01:18.061Z,72.83
2017-05-13T03:01:58.650Z,72.73
2017-05-13T03:02:39.239Z,72.83
2017-05-13T03:03:19.821Z,72.63
2017-05-13T03:04:00.404Z,72.73
2017-05-13T03:04:41.036Z,72.73
2017-05-13T03:05:21.685Z,72.54
2017-05-13T03:06:02.424Z,72.73
2017-05-13T03:06:43.072Z,72.73
2017-05-13T03:07:23.644Z,73.02
2017-05-13T03:08:04.279Z,72.73
2017-05-13T03:08:44.833Z,72.63
2017-05-13T03:09:25.459Z,72.83
2017-05-13T03:10:06.047Z,72.63
2017-05-13T03:10:46.688Z,72.63
2017-05-13T03:11:27.288Z,71.87
2017-05-13T03:12:07.935Z,71.3
2017-05-13T03:12:48.548Z,71.2
2017-05-13T03:13:29.137Z,71.2
2017-05-13T03:14:09.745Z,70.72
2017-05-13T03:14:50.366Z,69.67
2017-05-13T03:15:31.058Z,70.24
2017-05-13T03:16:11.728Z,69.67
2017-05-13T03:16:52.716Z,69.67
2017-05-13T03:17:33.406Z,69.57
2017-05-13T03:18:13.983Z,69.86
2017-05-13T03:18:54.575Z,69.38
2017-05-13T03:19:35.170Z,69.38
2017-05-13T03:20:15.767Z,69.48
2017-05-13T03:20:56.372Z,69
2017-05-13T03:21:37.028Z,69
2017-05-13T03:22:17.688Z,69
2017-05-13T03:22:58.294Z,69.09
2017-05-13T03:23:38.887Z,69.09
2017-05-13T03:24:19.476Z,68.8
2017-05-13T03:25:00.153Z,69.19
2017-05-13T03:25:40.986Z,68.8
2017-05-13T03:26:21.622Z,69.09
2017-05-13T03:27:02.356Z,68.8
2017-05-13T03:27:43.002Z,69.19
2017-05-13T03:28:23.574Z,69.29
2017-05-13T03:29:04.147Z,68.62
2017-05-13T03:29:44.755Z,68.62
2017-05-13T03:30:25.367Z,68.62
2017-05-13T03:31:05.908Z,69.09
2017-05-13T03:31:46.529Z,68.52
2017-05-13T03:32:27.141Z,69
2017-05-13T03:33:07.836Z,68.62
2017-05-13T03:33:48.383Z,68.8
2017-05-13T03:34:29.017Z,68.9
2017-05-13T03:35:09.663Z,69
2017-05-13T03:35:51.058Z,68.9
2017-05-13T03:36:32.495Z,68.8
2017-05-13T03:37:13.209Z,68.33
2017-05-13T03:37:53.983Z,68.71
2017-05-13T03:38:34.583Z,67.85
2017-05-13T03:39:15.250Z,68.33
2017-05-13T03:39:55.846Z,68.04
2017-05-13T03:40:36.433Z,68.13
2017-05-13T03:41:17.081Z,67.47
2017-05-13T03:41:57.754Z,67.66
2017-05-13T03:42:38.348Z,67.66
2017-05-13T03:43:19.175Z,67.66
2017-05-13T03:43:59.882Z,68.04
2017-05-13T03:44:40.478Z,67.85
2017-05-13T03:45:21.343Z,67.76
2017-05-13T03:46:01.930Z,67.56
2017-05-13T03:46:42.582Z,67.76
2017-05-13T03:47:23.173Z,67.47
2017-05-13T03:48:03.785Z,67.66
2017-05-13T03:48:44.380Z,68.04
2017-05-13T03:49:25.218Z,67.66
2017-05-13T03:50:06.122Z,67.76
2017-05-13T03:50:47.039Z,67.66
2017-05-13T03:51:28.179Z,67.56
2017-05-13T03:52:08.776Z,67.56
2017-05-13T03:52:49.879Z,67.56
2017-05-13T03:53:30.660Z,67.85
2017-05-13T03:54:11.936Z,67.47
2017-05-13T03:54:52.632Z,67.66
2017-05-13T03:55:33.448Z,67.37
2017-05-13T03:56:14.602Z,67.18
2017-05-13T03:56:55.855Z,67.37
2017-05-13T03:57:36.495Z,67.27
2017-05-13T03:58:17.233Z,67.56
2017-05-13T03:58:57.868Z,67.66
2017-05-13T03:59:38.480Z,67.27
2017-05-13T04:00:19.177Z,67.47
2017-05-13T04:00:59.821Z,67.27
2017-05-13T04:01:40.536Z,67.27
2017-05-13T04:02:21.102Z,67.08
2017-05-13T04:03:01.715Z,67.56
2017-05-13T04:03:42.330Z,67.37
2017-05-13T04:04:22.946Z,67.27
2017-05-13T04:05:03.541Z,67.08
2017-05-13T04:05:44.142Z,67.27
2017-05-13T04:06:24.717Z,67.18
2017-05-13T04:07:05.426Z,67.27
2017-05-13T04:07:46.405Z,66.99
2017-05-13T04:08:27.131Z,66.99
2017-05-13T04:09:07.969Z,67.08
2017-05-13T04:09:48.487Z,67.18
2017-05-13T04:10:29.099Z,66.7
2017-05-13T04:11:09.736Z,66.51
2017-05-13T04:11:50.533Z,66.7
2017-05-13T04:12:31.213Z,66.51
2017-05-13T04:13:11.914Z,66.22
2017-05-13T04:13:52.527Z,66.89
2017-05-13T04:14:33.168Z,66.7
2017-05-13T04:15:13.873Z,66.7
2017-05-13T04:15:54.822Z,66.7
2017-05-13T04:16:35.633Z,66.61
2017-05-13T04:17:16.281Z,66.7
2017-05-13T04:17:56.872Z,66.51
2017-05-13T04:18:37.471Z,66.41
2017-05-13T04:19:18.136Z,66.7
2017-05-13T04:19:59.062Z,66.99
2017-05-13T04:20:40.002Z,66.8
2017-05-13T04:21:20.861Z,67.34
2017-05-13T04:22:01.505Z,67.66
2017-05-13T04:22:42.551Z,67.43
2017-05-13T04:23:23.369Z,67.47
2017-05-13T04:24:04.726Z,67.85
2017-05-13T04:24:45.596Z,67.47
2017-05-13T04:25:26.206Z,67.94
2017-05-13T04:26:07.344Z,68.52
2017-05-13T04:26:48.538Z,67.85
2017-05-13T04:27:29.493Z,67.94
2017-05-13T04:28:10.355Z,68.33
2017-05-13T04:28:51.257Z,68.04
2017-05-13T04:29:31.838Z,67.76
2017-05-13T04:30:12.672Z,67.94
2017-05-13T04:30:53.308Z,68.13
2017-05-13T04:31:33.899Z,68.13
2017-05-13T04:32:14.532Z,68.13
2017-05-13T04:32:55.125Z,68.62
2017-05-13T04:33:35.757Z,68.52
2017-05-13T04:34:16.402Z,68.42
2017-05-13T04:34:57.096Z,68.68
2017-05-13T04:35:37.746Z,68.33
2017-05-13T04:36:18.335Z,68.9
2017-05-13T04:36:58.964Z,68.71
2017-05-13T04:37:39.606Z,68.8
2017-05-13T04:38:20.467Z,68.52
2017-05-13T04:39:01.295Z,68.52
2017-05-13T04:39:41.988Z,68.42
2017-05-13T04:40:22.870Z,68.9
2017-05-13T04:41:03.734Z,68.9
2017-05-13T04:41:44.346Z,68.9
2017-05-13T04:42:25.082Z,68.9
2017-05-13T04:43:06.045Z,69.29
2017-05-13T04:43:46.804Z,69.19
2017-05-13T04:44:27.418Z,69
2017-05-13T04:45:08.016Z,69.29
2017-05-13T04:45:48.625Z,69.19
2017-05-13T04:46:29.552Z,69
2017-05-13T04:47:10.325Z,68.9
2017-05-13T04:47:51.041Z,69.19
2017-05-13T04:48:32.041Z,69.19
2017-05-13T04:49:12.694Z,69.19
2017-05-13T04:49:53.355Z,68.8
2017-05-13T04:50:34.374Z,69
2017-05-13T04:51:14.983Z,69.09
2017-05-13T04:51:55.760Z,69.09
2017-05-13T04:52:36.299Z,69.09
2017-05-13T04:53:16.890Z,69.19
2017-05-13T04:53:57.473Z,69.19
2017-05-13T04:54:38.265Z,68.8
2017-05-13T04:55:19.004Z,69.09
2017-05-13T04:55:59.674Z,69.09
2017-05-13T04:56:40.310Z,69
2017-05-13T04:57:20.914Z,69.09
2017-05-13T04:58:01.511Z,69.19
2017-05-13T04:58:42.270Z,69.48
2017-05-13T04:59:22.922Z,69.86
2017-05-13T05:00:03.515Z,69.76
2017-05-13T05:00:44.169Z,69.76
2017-05-13T05:01:24.727Z,70.24
2017-05-13T05:02:05.324Z,70.15
2017-05-13T05:02:46.032Z,69.86
2017-05-13T05:03:26.954Z,70.05
2017-05-13T05:04:07.696Z,69.95
2017-05-13T05:04:48.301Z,69.95
2017-05-13T05:05:28.883Z,69.95
2017-05-13T05:06:09.495Z,70.62
2017-05-13T05:06:50.503Z,70.05
2017-05-13T05:07:31.194Z,69.95
2017-05-13T05:08:11.862Z,69.76
2017-05-13T05:08:52.670Z,69.76
2017-05-13T05:09:33.311Z,69.86
2017-05-13T05:10:13.908Z,70.05
2017-05-13T05:10:54.566Z,69.86
2017-05-13T05:11:35.201Z,69.76
2017-05-13T05:12:16.013Z,70.53
2017-05-13T05:12:56.605Z,70.43
2017-05-13T05:13:37.683Z,70.24
2017-05-13T05:14:18.413Z,70.72
2017-05-13T05:14:59.028Z,70.53
2017-05-13T05:15:39.660Z,70.43
2017-05-13T05:16:20.559Z,70.43
2017-05-13T05:17:01.409Z,71.01
2017-05-13T05:17:42.033Z,70.34
2017-05-13T05:18:22.633Z,70.53
2017-05-13T05:19:03.303Z,70.91
2017-05-13T05:19:44.130Z,70.81
2017-05-13T05:20:24.682Z,70.62
2017-05-13T05:21:05.433Z,70.53
2017-05-13T05:21:46.123Z,71.11
2017-05-13T05:22:26.920Z,71.01
2017-05-13T05:23:07.723Z,71.39
2017-05-13T05:23:48.363Z,70.91
2017-05-13T05:24:29.268Z,71.3
2017-05-13T05:25:09.965Z,71.11
2017-05-13T05:25:51.023Z,71.2
2017-05-13T05:26:31.963Z,71.2
2017-05-13T05:27:12.733Z,71.3
2017-05-13T05:27:54.284Z,71.48
2017-05-13T05:28:34.441Z,71.48
2017-05-13T05:29:15.585Z,71.58
2017-05-13T05:29:56.215Z,71.58
2017-05-13T05:30:36.780Z,71.48
2017-05-13T05:31:17.388Z,71.48
2017-05-13T05:31:58.166Z,71.58
2017-05-13T05:32:39.561Z,71.48
2017-05-13T05:33:20.364Z,71.39
2017-05-13T05:34:01.164Z,71.39
2017-05-13T05:34:41.918Z,71.48
2017-05-13T05:35:22.539Z,71.68
2017-05-13T05:36:03.157Z,71.68
2017-05-13T05:36:43.813Z,71.68
2017-05-13T05:37:24.743Z,71.58
2017-05-13T05:38:05.427Z,71.97
2017-05-13T05:38:46.085Z,71.58
2017-05-13T05:39:26.801Z,71.58
2017-05-13T05:40:07.385Z,71.77
2017-05-13T05:40:47.981Z,72.16
2017-05-13T05:41:28.792Z,72.44
2017-05-13T05:42:10.022Z,72.16
2017-05-13T05:42:50.691Z,72.54
2017-05-13T05:43:31.539Z,72.54
2017-05-13T05:44:12.309Z,72.54
2017-05-13T05:44:52.907Z,72.73
2017-05-13T05:45:33.696Z,72.44
2017-05-13T05:46:14.450Z,72.41
2017-05-13T05:46:55.134Z,72.16
2017-05-13T05:47:35.765Z,73.02
2017-05-13T05:48:16.363Z,72.63
2017-05-13T05:48:56.944Z,72.54
2017-05-13T05:49:37.553Z,73.02
2017-05-13T05:50:18.221Z,72.83
2017-05-13T05:50:59.144Z,72.73
2017-05-13T05:51:39.945Z,72.92
2017-05-13T05:52:20.942Z,72.92
2017-05-13T05:53:01.738Z,72.83
2017-05-13T05:53:42.597Z,73.02
2017-05-13T05:54:23.238Z,72.83
2017-05-13T05:55:03.873Z,73.02
2017-05-13T05:55:44.489Z,73.02
2017-05-13T05:56:25.115Z,72.73
2017-05-13T05:57:05.865Z,72.79
2017-05-13T05:57:46.732Z,72.92
2017-05-13T05:58:27.348Z,73.11
2017-05-13T05:59:07.937Z,72.92
2017-05-13T05:59:48.555Z,72.92
2017-05-13T06:00:29.165Z,72.92
2017-05-13T06:01:10.212Z,72.92
2017-05-13T06:01:50.923Z,72.92
2017-05-13T06:02:31.556Z,73.11
2017-05-13T06:03:12.153Z,73.02
2017-05-13T06:03:52.761Z,72.98
2017-05-13T06:04:33.579Z,72.88
2017-05-13T06:05:14.197Z,73.11
2017-05-13T06:05:54.990Z,72.83
2017-05-13T06:06:35.835Z,72.83
2017-05-13T06:07:16.637Z,72.73
2017-05-13T06:07:57.273Z,72.69
2017-05-13T06:08:37.826Z,72.63
2017-05-13T06:09:18.462Z,72.73
2017-05-13T06:09:59.149Z,72.83
2017-05-13T06:10:40.063Z,72.83
2017-05-13T06:11:20.818Z,72.54
2017-05-13T06:12:01.414Z,72.83
2017-05-13T06:12:42.029Z,72.73
2017-05-13T06:13:22.670Z,72.63
2017-05-13T06:14:03.269Z,72.63
2017-05-13T06:14:43.917Z,72.73
2017-05-13T06:15:24.619Z,73.02
2017-05-13T06:16:05.697Z,72.92
2017-05-13T06:16:46.391Z,73.21
2017-05-13T06:17:27.009Z,72.92
2017-05-13T06:18:07.657Z,72.92
2017-05-13T06:18:48.401Z,72.73
2017-05-13T06:19:29.052Z,73.02
2017-05-13T06:20:09.950Z,72.73
2017-05-13T06:20:50.571Z,72.73
2017-05-13T06:21:31.180Z,72.54
2017-05-13T06:22:11.985Z,73.11
2017-05-13T06:22:52.630Z,72.92
2017-05-13T06:23:33.420Z,72.83
2017-05-13T06:24:14.251Z,73.11
2017-05-13T06:24:55.215Z,72.73
2017-05-13T06:25:36.332Z,72.83
2017-05-13T06:26:16.900Z,73.02
2017-05-13T06:26:57.680Z,72.63
2017-05-13T06:27:38.420Z,72.92
2017-05-13T06:28:19.073Z,73.11
2017-05-13T06:28:59.731Z,73.11
2017-05-13T06:29:40.322Z,73.11
2017-05-13T06:30:20.911Z,73.21
2017-05-13T06:31:01.670Z,73.4
2017-05-13T06:31:42.458Z,73.11
2017-05-13T06:32:23.047Z,73.11
2017-05-13T06:33:03.630Z,73.3
2017-05-13T06:33:44.475Z,73.3
2017-05-13T06:34:25.068Z,73.5
2017-05-13T06:35:05.831Z,73.4
2017-05-13T06:35:46.660Z,73.3
2017-05-13T06:36:27.275Z,73.4
2017-05-13T06:37:07.869Z,73.21
2017-05-13T06:37:48.446Z,73.21
2017-05-13T06:38:29.014Z,73.11
2017-05-13T06:39:09.685Z,72.83
2017-05-13T06:39:50.278Z,73.21
2017-05-13T06:40:30.885Z,72.83
2017-05-13T06:41:11.574Z,72.83
2017-05-13T06:41:52.498Z,72.83
2017-05-13T06:42:33.553Z,73.11
2017-05-13T06:43:14.409Z,73.02
2017-05-13T06:43:55.983Z,73.02
2017-05-13T06:44:36.677Z,72.73
2017-05-13T06:45:17.378Z,72.92
2017-05-13T06:45:58.174Z,72.92
2017-05-13T06:46:38.863Z,72.92
2017-05-13T06:47:19.471Z,72.73
2017-05-13T06:48:00.084Z,72.92
2017-05-13T06:48:40.677Z,73.21
2017-05-13T06:49:21.260Z,73.11
2017-05-13T06:50:01.879Z,72.44
2017-05-13T06:50:42.473Z,73.02
2017-05-13T06:51:23.136Z,73.02
2017-05-13T06:52:03.711Z,72.63
2017-05-13T06:52:44.333Z,72.77
2017-05-13T06:53:25.120Z,72.77
2017-05-13T06:54:05.738Z,72.38
2017-05-13T06:54:46.417Z,72.29
2017-05-13T06:55:27.079Z,72.86
2017-05-13T06:56:07.657Z,72.48
2017-05-13T06:56:48.388Z,72.48
2017-05-13T06:57:29.111Z,72.29
2017-05-13T06:58:10.133Z,72.38
2017-05-13T06:58:50.923Z,72.67
2017-05-13T06:59:31.927Z,72.86
2017-05-13T07:00:12.774Z,72.48
2017-05-13T07:00:53.391Z,72.58
2017-05-13T07:01:34.026Z,72.86
2017-05-13T07:02:14.633Z,72.96
2017-05-13T07:02:55.237Z,72.58
2017-05-13T07:03:35.862Z,72.77
2017-05-13T07:04:16.454Z,73.05
2017-05-13T07:04:57.049Z,73.05
2017-05-13T07:05:37.625Z,72.67
2017-05-13T07:06:18.224Z,72.77
2017-05-13T07:06:58.804Z,72.96
2017-05-13T07:07:39.386Z,72.86
2017-05-13T07:08:19.968Z,73.24
2017-05-13T07:09:00.573Z,72.86
2017-05-13T07:09:41.238Z,72.96
2017-05-13T07:10:21.963Z,73.05
2017-05-13T07:11:02.585Z,73.05
2017-05-13T07:11:43.292Z,73.05
2017-05-13T07:12:23.889Z,73.15
2017-05-13T07:13:04.464Z,72.96
2017-05-13T07:13:45.116Z,72.96
2017-05-13T07:14:25.768Z,72.96
2017-05-13T07:15:06.358Z,73.15
2017-05-13T07:15:46.994Z,73.05
2017-05-13T07:16:27.600Z,72.86
2017-05-13T07:17:08.200Z,72.77
2017-05-13T07:17:48.819Z,72.77
2017-05-13T07:18:29.391Z,72.86
2017-05-13T07:19:10.017Z,73.54
2017-05-13T07:19:50.691Z,73.44
2017-05-13T07:20:31.299Z,73.24
2017-05-13T07:21:11.880Z,73.44
2017-05-13T07:21:52.470Z,73.34
2017-05-13T07:22:33.077Z,73.15
2017-05-13T07:23:13.719Z,73.24
2017-05-13T07:23:54.300Z,73.34
2017-05-13T07:24:35.191Z,73.34
2017-05-13T07:25:21.441Z,72.96
2017-05-13T07:26:02.088Z,72.96
2017-05-13T07:26:42.676Z,73.15
2017-05-13T07:27:23.271Z,72.96
2017-05-13T07:28:03.929Z,73.44
2017-05-13T07:28:44.545Z,73.24
2017-05-13T07:29:25.166Z,73.44
2017-05-13T07:30:05.800Z,73.44
2017-05-13T07:30:46.454Z,73.34
2017-05-13T07:31:27.043Z,73.91
2017-05-13T07:32:07.688Z,73.54
2017-05-13T07:32:48.327Z,73.91
2017-05-13T07:33:28.943Z,74.01
2017-05-13T07:34:09.600Z,74.3
2017-05-13T07:34:50.206Z,73.72
2017-05-13T07:35:30.791Z,74.2
2017-05-13T07:36:11.475Z,74.4
2017-05-13T07:36:52.066Z,73.72
2017-05-13T07:37:32.701Z,73.63
2017-05-13T07:38:13.311Z,73.91
2017-05-13T07:38:53.932Z,74.4
2017-05-13T07:39:34.558Z,74.2
2017-05-13T07:40:15.213Z,74.2
2017-05-13T07:41:00.034Z,74.4
2017-05-13T07:41:46.421Z,73.91
2017-05-13T07:42:28.818Z,74.2
2017-05-13T07:43:11.754Z,74.01
2017-05-13T07:43:52.618Z,74.2
2017-05-13T07:44:44.339Z,74.01
2017-05-13T07:45:39.224Z,74.2
2017-05-13T07:46:35.995Z,74.2
2017-05-13T07:47:20.133Z,74.11
2017-05-13T07:48:09.489Z,74.3
2017-05-13T07:48:53.411Z,74.01
2017-05-13T07:49:40.075Z,74.01
2017-05-13T07:50:34.741Z,74.49
2017-05-13T07:51:18.088Z,74.68
2017-05-13T07:52:03.637Z,74.91
2017-05-13T07:52:46.015Z,74.33
2017-05-13T07:53:31.832Z,74.43
2017-05-13T07:54:16.703Z,74.24
2017-05-13T07:54:57.340Z,74.15
2017-05-13T07:55:38.424Z,74.33
2017-05-13T07:56:19.218Z,74.11
2017-05-13T07:56:59.870Z,74.24
2017-05-13T07:57:40.457Z,74.33
2017-05-13T07:58:21.053Z,74.2
2017-05-13T07:59:01.651Z,74.33
2017-05-13T07:59:42.245Z,73.91
2017-05-13T08:00:22.828Z,74.24
2017-05-13T08:01:03.415Z,74.2
2017-05-13T08:01:43.992Z,74.52
2017-05-13T08:02:24.592Z,74.24
2017-05-13T08:03:05.407Z,74.33
2017-05-13T08:03:45.994Z,74.82
2017-05-13T08:04:26.593Z,74.2
2017-05-13T08:05:07.171Z,74.72
2017-05-13T08:05:47.743Z,74.82
2017-05-13T08:06:28.322Z,74.43
2017-05-13T08:07:08.923Z,74.43
2017-05-13T08:07:49.505Z,74.52
2017-05-13T08:08:30.086Z,74.43
2017-05-13T08:09:10.684Z,74.33
2017-05-13T08:09:51.305Z,75.1
2017-05-13T08:10:31.893Z,75.1
2017-05-13T08:11:12.464Z,75.1
2017-05-13T08:11:53.043Z,74.72
2017-05-13T08:12:33.639Z,75.1
2017-05-13T08:13:14.243Z,75.1
2017-05-13T08:13:54.819Z,74.91
2017-05-13T08:14:35.396Z,75.01
2017-05-13T08:15:15.964Z,74.91
2017-05-13T08:15:56.550Z,74.72
2017-05-13T08:16:37.186Z,74.72
2017-05-13T08:17:17.775Z,75.39
2017-05-13T08:17:58.360Z,75.1
2017-05-13T08:18:38.945Z,74.91
2017-05-13T08:19:19.542Z,75.01
2017-05-13T08:20:00.137Z,74.72
2017-05-13T08:20:40.719Z,74.82
2017-05-13T08:21:21.360Z,74.72
2017-05-13T08:22:01.985Z,75.01
2017-05-13T08:22:42.565Z,74.91
2017-05-13T08:23:23.144Z,75.01
2017-05-13T08:24:03.730Z,75.01
2017-05-13T08:24:44.329Z,74.82
2017-05-13T08:25:24.911Z,75.01
2017-05-13T08:26:05.523Z,74.72
2017-05-13T08:26:46.097Z,74.72
2017-05-13T08:27:26.695Z,74.91
2017-05-13T08:28:07.289Z,74.91
2017-05-13T08:28:47.900Z,74.91
2017-05-13T08:29:28.478Z,74.43
2017-05-13T08:30:09.115Z,74.05
2017-05-13T08:30:49.686Z,73.66
2017-05-13T08:31:30.894Z,73.57
2017-05-13T08:32:11.468Z,73.28
2017-05-13T08:32:52.058Z,72.9
2017-05-13T08:33:32.681Z,72.71
2017-05-13T08:34:13.268Z,72.99
2017-05-13T08:34:53.876Z,73.19
2017-05-13T08:35:34.469Z,73.03
2017-05-13T08:36:15.055Z,72.55
2017-05-13T08:36:55.736Z,72.55
2017-05-13T08:37:36.325Z,72.36
2017-05-13T08:38:16.889Z,72.55
2017-05-13T08:38:57.490Z,72.27
2017-05-13T08:39:38.118Z,71.88
2017-05-13T08:40:18.735Z,71.98
2017-05-13T08:40:59.325Z,71.92
2017-05-13T08:41:39.937Z,72.11
2017-05-13T08:42:20.530Z,72.01
2017-05-13T08:43:01.138Z,71.92
2017-05-13T08:43:42.863Z,72.2
2017-05-13T08:44:25.098Z,72.01
2017-05-13T08:45:06.710Z,72.01
2017-05-13T08:45:49.229Z,71.92
2017-05-13T08:46:30.349Z,72.59
2017-05-13T08:47:11.623Z,72.11
2017-05-13T08:47:52.695Z,72.01
2017-05-13T08:48:33.300Z,72.01
2017-05-13T08:49:13.921Z,72.01